Flight Track Log - Related Links

Times and Time Zones

All times are in EDT time to prevent confusion due to time zone crossing. See the UAL109 flight status page for this flight to view local times or setup timezone preferences in your user account.

Time Position Orientation Groundspeed Altitude Reporting Facility
EDT Latitude Longitude Course Direction KTS MPH feet Rate Location/Type
Mon 07:06:41 AM 55.9480 -3.3700 312° West 6 7  Level FlightAware ADS-B
Mon 07:07:21 AM 55.9480 -3.3690 90° East 4 5 19 Level FlightAware ADS-B
Mon 07:08:26 AM 55.9490 -3.3690 360° North 20 Level FlightAware ADS-B
Mon 07:09:56 AM 55.9490 -3.3700 270° West 22 Level FlightAware ADS-B
Mon 07:12:00 AM 55.9779 -3.7675 281° West  Level FlightAware Approximate
Mon 07:13:00 AM 56.0001 -3.9581 282° West  Level FlightAware Approximate
Mon 07:13:26 AM 55.9490 -3.3710 282° West  Level FlightAware ADS-B
Mon 07:13:42 AM 55.9490 -3.3700 90° East 13 15 51 Level FlightAware ADS-B
Mon 07:14:07 AM 55.9500 -3.3680 48° Northeast 15 17 55 Level FlightAware ADS-B
Mon 07:14:38 AM 55.9510 -3.3640 66° East 16 18 62 Level FlightAware ADS-B
Mon 07:14:49 AM 55.9520 -3.3630 29° Northeast 16 18 74 Level FlightAware ADS-B
Mon 07:15:26 AM 55.9540 -3.3590 48° Northeast 12 14 79 Level FlightAware ADS-B
Mon 07:15:46 AM 55.9550 -3.3600 331° Northwest 12 14 104 Level FlightAware ADS-B
Mon 07:16:01 AM 55.9550 -3.3610 270° West 7 8 126 Level FlightAware ADS-B
Mon 07:16:41 AM 55.9550 -3.3620 270° West 38 44 150 Level FlightAware ADS-B
Mon 07:16:56 AM 55.9520 -3.3700 236° Southwest 105 121 300 Level FlightAware ADS-B
Mon 07:17:21 AM 55.9430 -3.3970 239° Southwest 172 198 200 2,143 Climbing FlightAware ADS-B
Mon 07:17:52 AM 55.9310 -3.4320 239° Southwest 163 188 2,000 2,769 Climbing FlightAware ADS-B
Mon 07:18:26 AM 55.9170 -3.4740 239° Southwest 170 196 3,200 1,594 Climbing FlightAware ADS-B
Mon 07:18:56 AM 55.9040 -3.5160 241° Southwest 209 241 3,700 1,200 Climbing FlightAware ADS-B
Mon 07:19:11 AM 55.9020 -3.5420 262° West 226 260 4,100 1,600 Climbing FlightAware ADS-B
Mon 07:19:41 AM 55.8960 -3.6010 260° West 259 298 4,900 1,418 Climbing FlightAware ADS-B
Mon 07:20:06 AM 55.8900 -3.6580 259° West 294 338 5,400 1,200 Climbing FlightAware ADS-B
Mon 07:20:36 AM 55.8830 -3.7300 260° West 326 375 6,000 2,000 Climbing FlightAware ADS-B
Mon 07:21:15 AM 55.8721 -3.8382 260° West 370 426 7,700 2,615 Climbing FlightAware UK
Mon 07:21:15 AM 55.8720 -3.8410 260° West 351 404 7,700 3,000 Level FlightAware ADS-B
Mon 07:21:45 AM 55.8630 -3.9270 259° West 358 412 9,200 2,743 Climbing FlightAware ADS-B
Mon 07:22:25 AM 55.8480 -4.0450 257° West 366 421 10,900 2,444 Climbing FlightAware ADS-B
Mon 07:23:06 AM 55.8280 -4.1570 252° West 377 434 12,500 2,222 Climbing FlightAware ADS-B
Mon 07:23:46 AM 55.8030 -4.2790 250° West 388 447 13,900 2,100 Climbing FlightAware ADS-B
Mon 07:24:26 AM 55.7770 -4.4030 250° West 396 456 15,300 2,049 Climbing FlightAware ADS-B
Mon 07:25:08 AM 55.7510 -4.5310 250° West 402 463 16,700 2,083 Climbing FlightAware ADS-B
Mon 07:25:38 AM 55.7330 -4.6210 250° West 404 465 17,800 2,000 Climbing FlightAware ADS-B
Mon 07:26:23 AM 55.7040 -4.7670 251° West 413 475 19,200 1,841 Climbing FlightAware ADS-B
Mon 07:27:06 AM 55.6760 -4.9020 250° West 420 483 20,500 1,658 Climbing FlightAware ADS-B
Mon 07:27:39 AM 55.6530 -5.0110 250° West 428 493 21,300 1,541 Climbing FlightAware ADS-B
Mon 07:28:20 AM 55.6250 -5.1460 250° West 435 501 22,400 1,467 Climbing FlightAware ADS-B
Mon 07:29:09 AM 55.5917 -5.2981 250° West 472 543 23,500 700 Climbing FlightAware UK
Mon 07:29:20 AM 55.5850 -5.3350 250° West 442 509 23,100 1,500 Descending FlightAware ADS-B
Mon 07:30:01 AM 55.5530 -5.4920 250° West 451 519 24,800 1,975 Climbing FlightAware ADS-B
Mon 07:30:39 AM 55.5269 -5.6052 250° West 488 562 25,700 1,467 Climbing FlightAware UK
Mon 07:30:46 AM 55.5200 -5.6460 250° West 455 524 25,900 1,429 Climbing FlightAware ADS-B
Mon 07:31:21 AM 55.4959 -5.7499 250° West 490 564 26,700 1,500 Climbing FlightAware UK
Mon 07:31:26 AM 55.4900 -5.7830 250° West 454 522 26,900 2,000 Climbing FlightAware ADS-B
Mon 07:31:57 AM 55.4695 -5.8731 250° West 484 557 27,900 1,950 Climbing FlightAware UK
Mon 07:32:06 AM 55.4610 -5.9190 250° West 448 516 28,200 1,773 Climbing FlightAware ADS-B
Mon 07:32:41 AM 55.4340 -6.0420 249° West 445 512 29,200 1,565 Climbing FlightAware ADS-B
Mon 07:33:15 AM 55.4127 -6.1342 249° West 478 550 30,000 1,317 Climbing FlightAware UK
Mon 07:33:22 AM 55.4050 -6.1750 249° West 443 510 30,100 1,647 Climbing FlightAware ADS-B
Mon 07:34:06 AM 55.3710 -6.3270 249° West 437 503 31,400 1,579 Climbing FlightAware ADS-B
Mon 07:34:57 AM 55.3390 -6.4684 249° West 470 541 32,600 1,418 Climbing FlightAware UK
Mon 07:35:01 AM 55.3310 -6.5080 249° West 430 495 32,700 1,320 Climbing FlightAware ADS-B
Mon 07:35:47 AM 55.2980 -6.6550 249° West 426 490 33,700 907 Climbing FlightAware ADS-B
Mon 07:36:27 AM 55.2742 -6.7577 249° West 472 543 34,000 450 Climbing FlightAware UK
Mon 07:36:27 AM 55.2680 -6.7870 249° West 432 497 34,000  Level FlightAware ADS-B
Mon 07:36:57 AM 55.2525 -6.8541 249° West 472 543 34,000  Level FlightAware UK
Mon 07:37:07 AM 55.2390 -6.9150 249° West 434 499 34,000  Level FlightAware ADS-B
Mon 07:37:47 AM 55.2080 -7.0480 248° West 433 498 34,000  Level FlightAware ADS-B
Mon 07:38:27 AM 55.1865 -7.1444 248° West 470 541 34,000  Level FlightAware UK
Mon 07:38:32 AM 55.1750 -7.1920 248° West 432 497 34,000  Level FlightAware ADS-B
Mon 07:39:17 AM 55.1420 -7.3350 248° West 431 496 34,000 494 Level FlightAware ADS-B
Mon 07:39:57 AM 55.1110 -7.4650 247° West 429 494 34,700 800 Climbing FlightAware ADS-B
Mon 07:40:32 AM 55.0935 -7.5451 247° West 468 539 35,000 439 Climbing FlightAware UK
Mon 07:40:38 AM 55.0810 -7.5940 247° West 427 491 35,000  Level FlightAware ADS-B
Mon 07:41:32 AM 55.0494 -7.7334 247° West 466 536 35,000  Level FlightAware UK
Mon 07:41:33 AM 55.0390 -7.7680 247° West 424 488 35,000  Level FlightAware ADS-B
Mon 07:42:13 AM 55.0120 -7.8850 248° West 423 487 35,000  Level FlightAware ADS-B
Mon 07:42:58 AM 54.9770 -8.0290 247° West 423 487 35,000  Level FlightAware ADS-B
Mon 07:43:32 AM 54.9603 -8.1065 247° West 464 534 35,000  Level FlightAware UK
Mon 07:43:38 AM 54.9460 -8.1570 247° West 422 486 35,000  Level FlightAware ADS-B
Mon 07:44:17 AM 54.9190 -8.2660 247° West 422 486 35,000  Level FlightAware ADS-B
Mon 07:44:53 AM 54.8900 -8.3850 247° West 421 484 35,000  Level FlightAware ADS-B
Mon 07:45:32 AM 54.8709 -8.4768 247° West 464 534 35,000  Level FlightAware UK
Mon 07:45:35 AM 54.8580 -8.5160 247° West 421 484 35,000  Level FlightAware ADS-B
Mon 07:46:18 AM 54.8240 -8.6540 247° West 418 481 35,000  Level FlightAware ADS-B
Mon 07:46:58 AM 54.7930 -8.7760 246° West 418 481 35,000  Level FlightAware ADS-B
Mon 07:47:38 AM 54.7757 -8.8635 246° West 464 534 35,000  Level FlightAware UK
Mon 07:47:39 AM 54.7620 -8.8990 246° West 418 481 35,000  Level FlightAware ADS-B
Mon 07:48:34 AM 54.7200 -9.0650 246° West 419 482 35,000  Level FlightAware ADS-B
Mon 07:49:14 AM 54.6870 -9.1900 245° Southwest 420 483 35,000  Level FlightAware ADS-B
Mon 07:49:53 AM 54.6550 -9.3150 246° West 420 483 35,000  Level FlightAware ADS-B
Mon 07:50:38 AM 54.6190 -9.4550 246° West 421 484 35,000  Level FlightAware ADS-B
Mon 07:51:18 AM 54.5870 -9.5760 246° West 423 487 35,000  Level FlightAware ADS-B
Mon 07:51:54 AM 54.5580 -9.6840 245° Southwest 424 488 35,000  Level FlightAware ADS-B
Mon 07:52:38 AM 54.5220 -9.8210 246° West 424 488 35,000  Level FlightAware ADS-B
Mon 07:53:18 AM 54.4900 -9.9430 246° West 424 488 35,000  Level FlightAware ADS-B
Mon 07:53:53 AM 54.4600 -10.0520 245° Southwest 425 489 35,000  Level FlightAware ADS-B
Mon 07:54:38 AM 54.4240 -10.1870 245° Southwest 425 489 35,000  Level FlightAware ADS-B
Mon 07:55:18 AM 54.3900 -10.3110 245° Southwest 425 489 35,000  Level FlightAware ADS-B
Mon 07:55:53 AM 54.3620 -10.4170 246° West 425 489 35,000  Level FlightAware ADS-B
Mon 07:56:38 AM 54.3240 -10.5560 245° Southwest 426 490 35,000  Level FlightAware ADS-B
Mon 07:57:18 AM 54.2910 -10.6760 245° Southwest 427 491 35,000  Level FlightAware ADS-B
Mon 07:58:00 AM 54.2560 -10.8000 244° Southwest 424 488 35,000  Level FlightAware ADS-B
Mon 07:58:43 AM 54.2190 -10.9350 245° Southwest 425 489 35,000  Level FlightAware ADS-B
Mon 07:59:23 AM 54.1850 -11.0570 245° Southwest 425 489 35,000  Level FlightAware ADS-B
Mon 08:00:16 AM 54.1410 -11.2130 244° Southwest 426 490 35,000  Level FlightAware ADS-B
Mon 08:01:47 AM 54.0720 -11.4560 244° Southwest 425 489 35,000  Level FlightAware ADS-B
Mon 08:02:28 AM 54.0250 -11.6220 244° Southwest 426 490 35,000  Level FlightAware ADS-B
Mon 08:03:13 AM 53.9860 -11.7580 244° Southwest 427 491 35,000  Level FlightAware ADS-B
Mon 08:03:54 AM 53.9540 -11.8670 244° Southwest 427 491 35,000  Level FlightAware ADS-B
Mon 08:04:33 AM 53.9160 -11.9990 244° Southwest 431 496 35,000  Level FlightAware ADS-B
Mon 08:05:13 AM 53.8810 -12.1190 244° Southwest 431 496 35,000  Level FlightAware ADS-B
Mon 08:05:58 AM 53.8420 -12.2510 243° Southwest 430 495 35,000  Level FlightAware ADS-B
Mon 08:06:53 AM 53.7940 -12.4160 244° Southwest 430 495 35,000  Level FlightAware ADS-B
Mon 08:07:39 AM 53.7530 -12.5560 244° Southwest 428 493 35,000  Level FlightAware ADS-B
Mon 08:08:13 AM 53.7230 -12.6540 243° Southwest 427 491 35,000  Level FlightAware ADS-B
Mon 08:09:03 AM 53.6780 -12.8050 243° Southwest 425 489 35,000  Level FlightAware ADS-B
Mon 08:09:40 AM 53.6470 -12.9090 243° Southwest 35,000  Level FlightAware ADS-B
Mon 08:10:25 AM 53.6070 -13.0430 243° Southwest 421 484 35,000  Level FlightAware ADS-B
Mon 08:11:17 AM 53.5690 -13.1670 243° Southwest 420 483 35,000  Level FlightAware ADS-B
Mon 08:11:56 AM 53.5400 -13.2640 243° Southwest 420 483 35,000  Level FlightAware ADS-B
Mon 08:12:39 AM 53.4920 -13.4200 243° Southwest 420 483 35,000  Level FlightAware ADS-B
Mon 08:13:14 AM 53.4590 -13.5250 242° Southwest 420 483 35,000  Level FlightAware ADS-B
Mon 08:14:03 AM 53.4130 -13.6770 243° Southwest 420 483 35,000  Level FlightAware ADS-B
Mon 08:14:43 AM 53.3760 -13.7940 242° Southwest 420 483 35,000  Level FlightAware ADS-B
Mon 08:15:23 AM 53.3410 -13.9060 242° Southwest 420 483 35,000  Level FlightAware ADS-B
Mon 08:16:10 AM 53.3060 -14.0190 243° Southwest 420 483 35,000  Level FlightAware ADS-B
Mon 08:16:46 AM 53.2780 -14.1070 242° Southwest 420 483 35,000  Level FlightAware ADS-B
Mon 08:17:34 AM 53.2410 -14.2240 242° Southwest 420 483 35,000  Level FlightAware ADS-B
Mon 08:18:10 AM 53.2130 -14.3110 242° Southwest 420 483 35,000  Level FlightAware ADS-B
Mon 08:18:58 AM 53.1750 -14.4280 242° Southwest 420 483 35,000  Level FlightAware ADS-B
Mon 08:19:34 AM 53.1480 -14.5160 243° Southwest 420 483 35,000  Level FlightAware ADS-B
Mon 08:20:22 AM 53.1100 -14.6320 241° Southwest 420 483 35,000  Level FlightAware ADS-B
Mon 08:20:58 AM 53.0820 -14.7200 242° Southwest 420 483 35,000  Level FlightAware ADS-B
Mon 08:21:46 AM 53.0450 -14.8360 242° Southwest 420 483 35,000  Level FlightAware ADS-B
Mon 08:22:22 AM 53.0170 -14.9240 242° Southwest 420 483 35,000  Level FlightAware ADS-B
Mon 08:23:10 AM 52.9800 -15.0400 242° Southwest 420 483 35,000  Level FlightAware ADS-B
Mon 08:23:46 AM 52.9520 -15.1270 242° Southwest 420 483 35,000  Level FlightAware ADS-B
Mon 08:24:22 AM 52.9240 -15.2140 242° Southwest 420 483 35,000  Level FlightAware ADS-B
Mon 08:25:10 AM 52.8870 -15.3300 242° Southwest 420 483 35,000  Level FlightAware ADS-B
Mon 08:27:00 AM 52.9130 -15.6839 277° West  Level Estimated
Mon 08:28:00 AM 52.9267 -15.8771 277° West  Level Estimated
Mon 08:29:00 AM 52.9401 -16.0705 277° West  Level Estimated
Mon 08:30:00 AM 52.9532 -16.2640 276° West  Level Estimated
Mon 08:31:00 AM 52.9660 -16.4575 276° West  Level Estimated
Mon 08:32:00 AM 52.9784 -16.6512 276° West  Level Estimated
Mon 08:33:00 AM 52.9906 -16.8450 276° West  Level Estimated
Mon 08:34:00 AM 53.0024 -17.0389 276° West  Level Estimated
Mon 08:35:00 AM 53.0139 -17.2330 276° West  Level Estimated
Mon 08:36:00 AM 53.0255 -17.4341 276° West  Level Estimated
Mon 08:37:00 AM 53.0368 -17.6353 275° West  Level Estimated
Mon 08:38:00 AM 53.0477 -17.8366 275° West  Level Estimated
Mon 08:39:00 AM 53.0583 -18.0380 275° West  Level Estimated
Mon 08:40:00 AM 53.0685 -18.2395 275° West  Level Estimated
Mon 08:41:00 AM 53.0784 -18.4411 275° West  Level Estimated
Mon 08:42:00 AM 53.0880 -18.6428 275° West  Level Estimated
Mon 08:43:00 AM 53.0972 -18.8445 274° West  Level Estimated
Mon 08:44:00 AM 53.1061 -19.0464 274° West  Level Estimated
Mon 08:45:00 AM 53.1146 -19.2484 274° West  Level Estimated
Mon 08:46:00 AM 53.1228 -19.4504 274° West  Level Estimated
Mon 08:47:00 AM 53.1307 -19.6525 274° West  Level Estimated
Mon 08:48:00 AM 53.1382 -19.8546 274° West  Level Estimated
Mon 08:48:00 AM 52.0000 -20.0000 292° West 447 514 35,000  Level ETMS Enhanced Traffic Management System
Mon 08:49:00 AM 53.1453 -20.0569 273° West  Level Estimated
Mon 08:50:00 AM 53.1522 -20.2592 273° West  Level Estimated
Mon 08:50:00 AM 52.0000 -20.0000 265° West 444 511 35,000  Level ETMS Enhanced Traffic Management System
Mon 08:51:00 AM 53.1586 -20.4616 273° West  Level Estimated
Mon 08:52:00 AM 53.1648 -20.6640 273° West  Level Estimated
Mon 08:53:00 AM 53.1706 -20.8665 273° West  Level Estimated
Mon 08:54:00 AM 52.3232 -21.3160 291° West 447 514 35,000  Level FlightAware Transoceanic
Mon 08:55:00 AM 52.3681 -21.5056 291° West 447 514 35,000  Level FlightAware Transoceanic
Mon 08:56:00 AM 51.8859 -21.7939 263° West 444 511 35,000  Level FlightAware Transoceanic
Mon 08:57:00 AM 51.8715 -21.9927 263° West 444 511 35,000  Level FlightAware Transoceanic
Mon 08:58:00 AM 51.8568 -22.1913 263° West 444 511 35,000  Level FlightAware Transoceanic
Mon 08:59:00 AM 51.8418 -22.3898 263° West 444 511 35,000  Level FlightAware Transoceanic
Mon 09:00:00 AM 51.8264 -22.5881 263° West 444 511 35,000  Level FlightAware Transoceanic
Mon 09:01:00 AM 51.8107 -22.7863 263° West 444 511 35,000  Level FlightAware Transoceanic
Mon 09:02:00 AM 51.7947 -22.9844 262° West 444 511 35,000  Level FlightAware Transoceanic
Mon 09:03:00 AM 51.7783 -23.1823 262° West 444 511 35,000  Level FlightAware Transoceanic
Mon 09:04:00 AM 51.7616 -23.3801 262° West 444 511 35,000  Level FlightAware Transoceanic
Mon 09:05:00 AM 51.7446 -23.5777 262° West 444 511 35,000  Level FlightAware Transoceanic
Mon 09:06:00 AM 51.7272 -23.7752 262° West 444 511 35,000  Level FlightAware Transoceanic
Mon 09:07:00 AM 51.7095 -23.9725 262° West 444 511 35,000  Level FlightAware Transoceanic
Mon 09:08:00 AM 51.6915 -24.1697 262° West 444 511 35,000  Level FlightAware Transoceanic
Mon 09:09:00 AM 51.6732 -24.3667 261° West 444 511 35,000  Level FlightAware Transoceanic
Mon 09:10:00 AM 51.6545 -24.5636 261° West 444 511 35,000  Level FlightAware Transoceanic
Mon 09:11:00 AM 51.6355 -24.7603 261° West 444 511 35,000  Level FlightAware Transoceanic
Mon 09:12:00 AM 51.6161 -24.9568 261° West 444 511 35,000  Level FlightAware Transoceanic
Mon 09:13:00 AM 51.5965 -25.1532 261° West 444 511 35,000  Level FlightAware Transoceanic
Mon 09:14:00 AM 51.5765 -25.3493 261° West 444 511 35,000  Level FlightAware Transoceanic
Mon 09:15:00 AM 51.5562 -25.5453 260° West 444 511 35,000  Level FlightAware Transoceanic
Mon 09:16:00 AM 51.5355 -25.7412 260° West 444 511 35,000  Level FlightAware Transoceanic
Mon 09:17:00 AM 51.5146 -25.9368 260° West 444 511 35,000  Level FlightAware Transoceanic
Mon 09:18:00 AM 51.4933 -26.1323 260° West 444 511 35,000  Level FlightAware Transoceanic
Mon 09:19:00 AM 51.4717 -26.3276 260° West 444 511 35,000  Level FlightAware Transoceanic
Mon 09:20:00 AM 51.4497 -26.5227 260° West 444 511 35,000  Level FlightAware Transoceanic
Mon 09:21:00 AM 51.4274 -26.7176 260° West 444 511 35,000  Level FlightAware Transoceanic
Mon 09:22:00 AM 51.4049 -26.9123 259° West 444 511 35,000  Level FlightAware Transoceanic
Mon 09:23:00 AM 51.3819 -27.1069 259° West 444 511 35,000  Level FlightAware Transoceanic
Mon 09:24:00 AM 51.3587 -27.3012 259° West 444 511 35,000  Level FlightAware Transoceanic
Mon 09:25:00 AM 51.3352 -27.4953 259° West 444 511 35,000  Level FlightAware Transoceanic
Mon 09:26:00 AM 51.3113 -27.6893 259° West 444 511 35,000  Level FlightAware Transoceanic
Mon 09:27:00 AM 51.2871 -27.8830 259° West 444 511 35,000  Level FlightAware Transoceanic
Mon 09:28:00 AM 51.2626 -28.0765 258° West 444 511 35,000  Level FlightAware Transoceanic
Mon 09:29:00 AM 51.2377 -28.2698 258° West 444 511 35,000  Level FlightAware Transoceanic
Mon 09:30:00 AM 51.2126 -28.4630 258° West 444 511 35,000  Level FlightAware Transoceanic
Mon 09:31:00 AM 51.1871 -28.6558 258° West 444 511 35,000  Level FlightAware Transoceanic
Mon 09:32:00 AM 51.1613 -28.8485 258° West 444 511 35,000  Level FlightAware Transoceanic
Mon 09:33:00 AM 51.1352 -29.0410 258° West 444 511 35,000  Level FlightAware Transoceanic
Mon 09:34:00 AM 51.1088 -29.2332 258° West 444 511 35,000  Level FlightAware Transoceanic
Mon 09:35:00 AM 51.0821 -29.4253 257° West 444 511 35,000  Level FlightAware Transoceanic
Mon 09:36:00 AM 51.0550 -29.6171 257° West 444 511 35,000  Level FlightAware Transoceanic
Mon 09:37:00 AM 51.0277 -29.8086 257° West 444 511 35,000  Level FlightAware Transoceanic
Mon 09:38:00 AM 51.0001 -29.9991 257° West  Level FlightAware Approximate
Mon 09:39:00 AM 50.9725 -30.1894 257° West  Level FlightAware Approximate
Mon 09:40:00 AM 50.9713 -30.1880 256° West  Level FlightAware Approximate
Mon 09:40:00 AM 51.0000 -30.0000 257° West 417 480 35,000  Level ETMS Enhanced Traffic Management System
Mon 09:41:00 AM 50.9421 -30.3776 256° West  Level FlightAware Approximate
Mon 09:42:00 AM 50.9125 -30.5669 256° West  Level FlightAware Approximate
Mon 09:43:00 AM 50.8827 -30.7560 256° West  Level FlightAware Approximate
Mon 09:44:00 AM 50.8525 -30.9449 256° West  Level FlightAware Approximate
Mon 09:45:00 AM 50.8220 -31.1334 256° West  Level FlightAware Approximate
Mon 09:46:00 AM 50.8051 -31.2495 256° West 417 480 35,000  Level FlightAware Transoceanic
Mon 09:47:00 AM 50.7762 -31.4271 255° West 417 480 35,000  Level FlightAware Transoceanic
Mon 09:48:00 AM 50.7470 -31.6045 255° West 417 480 35,000  Level FlightAware Transoceanic
Mon 09:49:00 AM 50.7175 -31.7817 255° West 417 480 35,000  Level FlightAware Transoceanic
Mon 09:50:00 AM 50.6878 -31.9587 255° West 417 480 35,000  Level FlightAware Transoceanic
Mon 09:51:00 AM 50.6578 -32.1354 255° West 417 480 35,000  Level FlightAware Transoceanic
Mon 09:52:00 AM 50.6275 -32.3120 255° West 417 480 35,000  Level FlightAware Transoceanic
Mon 09:53:00 AM 50.5970 -32.4883 255° West 417 480 35,000  Level FlightAware Transoceanic
Mon 09:54:00 AM 50.5662 -32.6643 255° West 417 480 35,000  Level FlightAware Transoceanic
Mon 09:55:00 AM 50.5351 -32.8401 254° West 417 480 35,000  Level FlightAware Transoceanic
Mon 09:56:00 AM 50.5038 -33.0157 254° West 417 480 35,000  Level FlightAware Transoceanic
Mon 09:57:00 AM 50.4722 -33.1911 254° West 417 480 35,000  Level FlightAware Transoceanic
Mon 09:58:00 AM 50.4404 -33.3662 254° West 417 480 35,000  Level FlightAware Transoceanic
Mon 09:59:00 AM 50.4082 -33.5411 254° West 417 480 35,000  Level FlightAware Transoceanic
Mon 10:00:00 AM 50.3759 -33.7158 254° West 417 480 35,000  Level FlightAware Transoceanic
Mon 10:01:00 AM 50.3432 -33.8902 254° West 417 480 35,000  Level FlightAware Transoceanic
Mon 10:02:00 AM 50.3103 -34.0644 253° West 417 480 35,000  Level FlightAware Transoceanic
Mon 10:03:00 AM 50.2772 -34.2383 253° West 417 480 35,000  Level FlightAware Transoceanic
Mon 10:04:00 AM 50.2437 -34.4120 253° West 417 480 35,000  Level FlightAware Transoceanic
Mon 10:05:00 AM 50.2101 -34.5854 253° West 417 480 35,000  Level FlightAware Transoceanic
Mon 10:06:00 AM 50.1761 -34.7586 253° West 417 480 35,000  Level FlightAware Transoceanic
Mon 10:07:00 AM 50.1419 -34.9316 253° West 417 480 35,000  Level FlightAware Transoceanic
Mon 10:08:00 AM 50.1075 -35.1043 253° West 417 480 35,000  Level FlightAware Transoceanic
Mon 10:09:00 AM 50.0728 -35.2767 253° West 417 480 35,000  Level FlightAware Transoceanic
Mon 10:10:00 AM 50.0378 -35.4489 252° West 417 480 35,000  Level FlightAware Transoceanic
Mon 10:11:00 AM 50.0026 -35.6209 252° West 417 480 35,000  Level FlightAware Transoceanic
Mon 10:12:00 AM 49.9671 -35.7926 252° West 417 480 35,000  Level FlightAware Transoceanic
Mon 10:13:00 AM 49.9314 -35.9640 252° West 417 480 35,000  Level FlightAware Transoceanic
Mon 10:14:00 AM 49.8954 -36.1352 252° West 417 480 35,000  Level FlightAware Transoceanic
Mon 10:15:00 AM 49.8592 -36.3062 252° West 417 480 35,000  Level FlightAware Transoceanic
Mon 10:16:00 AM 49.8227 -36.4768 252° West 417 480 35,000  Level FlightAware Transoceanic
Mon 10:17:00 AM 49.7860 -36.6473 251° West 417 480 35,000  Level FlightAware Transoceanic
Mon 10:18:00 AM 49.7490 -36.8174 251° West 417 480 35,000  Level FlightAware Transoceanic
Mon 10:19:00 AM 49.7118 -36.9873 251° West 417 480 35,000  Level FlightAware Transoceanic
Mon 10:20:00 AM 49.6743 -37.1570 251° West 417 480 35,000  Level FlightAware Transoceanic
Mon 10:21:00 AM 49.6366 -37.3263 251° West 417 480 35,000  Level FlightAware Transoceanic
Mon 10:22:00 AM 49.5986 -37.4954 251° West 417 480 35,000  Level FlightAware Transoceanic
Mon 10:23:00 AM 49.5604 -37.6643 251° West 417 480 35,000  Level FlightAware Transoceanic
Mon 10:24:00 AM 49.5220 -37.8329 251° West 417 480 35,000  Level FlightAware Transoceanic
Mon 10:25:00 AM 49.4833 -38.0012 250° West 417 480 35,000  Level FlightAware Transoceanic
Mon 10:26:00 AM 49.4443 -38.1693 250° West 417 480 35,000  Level FlightAware Transoceanic
Mon 10:27:00 AM 49.4051 -38.3370 250° West 417 480 35,000  Level FlightAware Transoceanic
Mon 10:28:00 AM 49.3657 -38.5046 250° West 417 480 35,000  Level FlightAware Transoceanic
Mon 10:29:00 AM 49.3260 -38.6718 250° West 417 480 35,000  Level FlightAware Transoceanic
Mon 10:30:00 AM 49.2861 -38.8388 250° West 417 480 35,000  Level FlightAware Transoceanic
Mon 10:31:00 AM 49.2459 -39.0055 250° West 417 480 35,000  Level FlightAware Transoceanic
Mon 10:32:00 AM 49.2055 -39.1719 250° West 417 480 35,000  Level FlightAware Transoceanic
Mon 10:33:00 AM 49.1649 -39.3381 249° West 417 480 35,000  Level FlightAware Transoceanic
Mon 10:34:00 AM 49.1240 -39.5040 249° West 417 480 35,000  Level FlightAware Transoceanic
Mon 10:35:00 AM 49.0829 -39.6696 249° West 417 480 35,000  Level FlightAware Transoceanic
Mon 10:36:00 AM 49.0416 -39.8349 249° West 417 480 35,000  Level FlightAware Transoceanic
Mon 10:37:00 AM 48.9975 -40.0099 249° West  Level FlightAware Approximate
Mon 10:38:00 AM 48.9966 -40.0207 256° West  Level FlightAware Approximate
Mon 10:39:00 AM 48.9669 -40.2024 256° West  Level FlightAware Approximate
Mon 10:40:00 AM 48.9369 -40.3840 256° West  Level FlightAware Approximate
Mon 10:41:00 AM 48.9066 -40.5653 256° West  Level FlightAware Approximate
Mon 10:42:00 AM 48.8759 -40.7464 256° West  Level FlightAware Approximate
Mon 10:42:00 AM 49.0000 -40.0000 257° West 433 498 35,000  Level ETMS Enhanced Traffic Management System
Mon 10:43:00 AM 48.8451 -40.9273 256° West  Level FlightAware Approximate
Mon 10:44:00 AM 48.8139 -41.1079 255° West  Level FlightAware Approximate
Mon 10:45:00 AM 48.7825 -41.2884 256° West  Level FlightAware Approximate
Mon 10:46:00 AM 48.7533 -41.4696 256° West  Level FlightAware Approximate
Mon 10:47:00 AM 48.7237 -41.6505 256° West  Level FlightAware Approximate
Mon 10:48:00 AM 48.6884 -41.9544 256° West 433 498 35,000  Level FlightAware Transoceanic
Mon 10:49:00 AM 48.6585 -42.1309 256° West 433 498 35,000  Level FlightAware Transoceanic
Mon 10:50:00 AM 48.6283 -42.3071 255° West 433 498 35,000  Level FlightAware Transoceanic
Mon 10:51:00 AM 48.5978 -42.4831 255° West 433 498 35,000  Level FlightAware Transoceanic
Mon 10:52:00 AM 48.5670 -42.6589 255° West 433 498 35,000  Level FlightAware Transoceanic
Mon 10:53:00 AM 48.5360 -42.8345 255° West 433 498 35,000  Level FlightAware Transoceanic
Mon 10:54:00 AM 48.5047 -43.0099 255° West 433 498 35,000  Level FlightAware Transoceanic
Mon 10:55:00 AM 48.4731 -43.1851 255° West 433 498 35,000  Level FlightAware Transoceanic
Mon 10:56:00 AM 48.4413 -43.3600 255° West 433 498 35,000  Level FlightAware Transoceanic
Mon 10:57:00 AM 48.4092 -43.5348 254° West 433 498 35,000  Level FlightAware Transoceanic
Mon 10:58:00 AM 48.3768 -43.7093 254° West 433 498 35,000  Level FlightAware Transoceanic
Mon 10:59:00 AM 48.3442 -43.8835 254° West 433 498 35,000  Level FlightAware Transoceanic
Mon 11:00:00 AM 48.3113 -44.0576 254° West 433 498 35,000  Level FlightAware Transoceanic
Mon 11:01:00 AM 48.2782 -44.2314 254° West 433 498 35,000  Level FlightAware Transoceanic
Mon 11:02:00 AM 48.2448 -44.4050 254° West 433 498 35,000  Level FlightAware Transoceanic
Mon 11:03:00 AM 48.2111 -44.5784 254° West 433 498 35,000  Level FlightAware Transoceanic
Mon 11:04:00 AM 48.1772 -44.7516 254° West 433 498 35,000  Level FlightAware Transoceanic
Mon 11:05:00 AM 48.1430 -44.9245 253° West 433 498 35,000  Level FlightAware Transoceanic
Mon 11:06:00 AM 48.1086 -45.0972 253° West 433 498 35,000  Level FlightAware Transoceanic
Mon 11:07:00 AM 48.0739 -45.2696 253° West 433 498 35,000  Level FlightAware Transoceanic
Mon 11:08:00 AM 48.0389 -45.4419 253° West 433 498 35,000  Level FlightAware Transoceanic
Mon 11:09:00 AM 48.0037 -45.6138 253° West 433 498 35,000  Level FlightAware Transoceanic
Mon 11:10:00 AM 47.9682 -45.7856 253° West 433 498 35,000  Level FlightAware Transoceanic
Mon 11:11:00 AM 47.9325 -45.9571 253° West 433 498 35,000  Level FlightAware Transoceanic
Mon 11:12:00 AM 47.8965 -46.1284 253° West 433 498 35,000  Level FlightAware Transoceanic
Mon 11:13:00 AM 47.8602 -46.2994 252° West 433 498 35,000  Level FlightAware Transoceanic
Mon 11:14:00 AM 47.8237 -46.4702 252° West 433 498 35,000  Level FlightAware Transoceanic
Mon 11:15:00 AM 47.7870 -46.6408 252° West 433 498 35,000  Level FlightAware Transoceanic
Mon 11:16:00 AM 47.7500 -46.8111 252° West 433 498 35,000  Level FlightAware Transoceanic
Mon 11:17:00 AM 47.7127 -46.9812 252° West 433 498 35,000  Level FlightAware Transoceanic
Mon 11:18:00 AM 47.6753 -47.1510 252° West 433 498 35,000  Level FlightAware Transoceanic
Mon 11:19:00 AM 47.6375 -47.3206 252° West 433 498 35,000  Level FlightAware Transoceanic
Mon 11:20:00 AM 47.5995 -47.4900 252° West 433 498 35,000  Level FlightAware Transoceanic
Mon 11:21:00 AM 47.5612 -47.6590 251° West 433 498 35,000  Level FlightAware Transoceanic
Mon 11:22:00 AM 47.5228 -47.8279 251° West 433 498 35,000  Level FlightAware Transoceanic
Mon 11:23:00 AM 47.4840 -47.9965 251° West 433 498 35,000  Level FlightAware Transoceanic
Mon 11:24:00 AM 47.4450 -48.1648 251° West 433 498 35,000  Level FlightAware Transoceanic
Mon 11:25:00 AM 47.4058 -48.3330 251° West 433 498 35,000  Level FlightAware Transoceanic
Mon 11:26:00 AM 47.3663 -48.5008 251° West 433 498 35,000  Level FlightAware Transoceanic
Mon 11:27:00 AM 47.3265 -48.6684 251° West 433 498 35,000  Level FlightAware Transoceanic
Mon 11:28:00 AM 47.2866 -48.8357 251° West 433 498 35,000  Level FlightAware Transoceanic
Mon 11:29:00 AM 47.2464 -49.0028 250° West 433 498 35,000  Level FlightAware Transoceanic
Mon 11:30:00 AM 47.2059 -49.1697 250° West 433 498 35,000  Level FlightAware Transoceanic
Mon 11:30:29 AM 47.1510 -49.4070 250° West 452 520 35,000  Level FlightAware ADS-B
Mon 11:31:00 AM 47.1652 -49.3362 250° West 433 498 35,000  Level FlightAware Transoceanic
Mon 11:31:14 AM 47.1180 -49.5380 250° West 451 519 35,000  Level FlightAware ADS-B
Mon 11:31:54 AM 47.0920 -49.6450 250° West 450 518 35,000  Level FlightAware ADS-B
Mon 11:32:34 AM 47.0620 -49.7620 249° West 449 517 35,000  Level FlightAware ADS-B
Mon 11:33:16 AM 47.0360 -49.8700 251° West 449 517 35,000  Level FlightAware ADS-B
Mon 11:34:04 AM 47.0070 -49.9870 250° West 449 517 35,000  Level FlightAware ADS-B
Mon 11:34:42 AM 46.9840 -50.0790 250° West 449 517 35,000  Level FlightAware ADS-B
Mon 11:34:57 AM 47.0000 -50.0000 259° West 499 574 35,000  Level ETMS Enhanced Traffic Management System
Mon 11:35:18 AM 46.9620 -50.1670 250° West 449 517 35,000  Level FlightAware ADS-B
Mon 11:36:06 AM 46.9330 -50.2830 250° West 449 517 35,000  Level FlightAware ADS-B
Mon 11:36:30 AM 46.9190 -50.3420 251° West 449 517 35,000  Level FlightAware ADS-B
Mon 11:37:18 AM 46.8900 -50.4580 250° West 449 517 35,000  Level FlightAware ADS-B
Mon 11:37:55 AM 46.8670 -50.5480 250° West 449 517 35,000  Level FlightAware ADS-B
Mon 11:38:41 AM 46.8390 -50.6600 250° West 449 517 35,000  Level FlightAware ADS-B
Mon 11:39:21 AM 46.8740 -50.9670 280° West 451 519 35,000  Level FlightAware ADS-B
Mon 11:39:56 AM 46.8580 -51.0700 257° West 452 520 35,000  Level FlightAware ADS-B
Mon 11:40:36 AM 46.8400 -51.1910 259° West 452 520 35,000  Level FlightAware ADS-B
Mon 11:41:16 AM 46.8220 -51.3120 258° West 452 520 35,000  Level FlightAware ADS-B
Mon 11:42:06 AM 46.7990 -51.4620 257° West 452 520 35,000  Level FlightAware ADS-B
Mon 11:42:46 AM 46.7800 -51.5790 257° West 453 521 35,000  Level FlightAware ADS-B
Mon 11:43:26 AM 46.7620 -51.6970 257° West 453 521 35,000  Level FlightAware ADS-B
Mon 11:44:06 AM 46.7430 -51.8170 257° West 453 521 35,000  Level FlightAware ADS-B
Mon 11:44:51 AM 46.7220 -51.9510 257° West 454 522 35,000  Level FlightAware ADS-B
Mon 11:45:34 AM 46.7010 -52.0800 257° West 455 524 35,000  Level FlightAware ADS-B
Mon 11:46:18 AM 46.6800 -52.2100 257° West 456 525 35,000  Level FlightAware ADS-B
Mon 11:46:58 AM 46.6600 -52.3280 256° West 458 527 35,000  Level FlightAware ADS-B
Mon 11:47:42 AM 46.6390 -52.4580 257° West 460 529 35,000  Level FlightAware ADS-B
Mon 11:48:30 AM 46.6150 -52.6060 257° West 463 533 35,000  Level FlightAware ADS-B
Mon 11:49:08 AM 46.5950 -52.7220 256° West 465 535 35,000  Level FlightAware ADS-B
Mon 11:49:54 AM 46.5730 -52.8570 257° West 467 537 35,000  Level FlightAware ADS-B
Mon 11:50:31 AM 46.5530 -52.9720 256° West 470 541 35,000  Level FlightAware ADS-B
Mon 11:51:17 AM 46.5290 -53.1120 256° West 473 544 35,000  Level FlightAware ADS-B
Mon 11:51:58 AM 46.5070 -53.2410 256° West 477 549 35,000  Level FlightAware ADS-B
Mon 11:52:42 AM 46.4830 -53.3770 256° West 478 550 35,000  Level FlightAware ADS-B
Mon 11:53:22 AM 46.4610 -53.5030 256° West 479 551 35,000  Level FlightAware ADS-B
Mon 11:54:02 AM 46.4400 -53.6260 256° West 479 551 35,000  Level FlightAware ADS-B
Mon 11:54:44 AM 46.4170 -53.7550 256° West 481 554 35,000  Level FlightAware ADS-B
Mon 11:55:30 AM 46.3910 -53.9020 256° West 480 552 35,000  Level FlightAware ADS-B
Mon 11:56:10 AM 46.3680 -54.0250 255° West 480 552 35,000  Level FlightAware ADS-B
Mon 11:56:53 AM 46.3460 -54.1510 256° West 478 550 35,000  Level FlightAware ADS-B
Mon 11:57:26 AM 46.3270 -54.2550 255° West 475 547 35,000  Level FlightAware ADS-B
Mon 11:58:06 AM 46.3050 -54.3750 255° West 474 545 35,000  Level FlightAware ADS-B
Mon 11:58:50 AM 46.2790 -54.5140 255° West 472 543 35,000  Level FlightAware ADS-B
Mon 11:59:31 AM 46.2560 -54.6400 255° West 471 542 35,000  Level FlightAware ADS-B
Mon 12:00:11 PM 46.2330 -54.7600 255° West 470 541 35,000  Level FlightAware ADS-B
Mon 12:00:56 PM 46.2080 -54.8940 255° West 470 541 35,000  Level FlightAware ADS-B
Mon 12:01:36 PM 46.1850 -55.0160 255° West 470 541 35,000  Level FlightAware ADS-B
Mon 12:02:16 PM 46.1620 -55.1370 255° West 470 541 35,000  Level FlightAware ADS-B
Mon 12:02:56 PM 46.1390 -55.2540 254° West 471 542 35,000  Level FlightAware ADS-B
Mon 12:03:36 PM 46.1150 -55.3770 254° West 471 542 35,000  Level FlightAware ADS-B
Mon 12:04:16 PM 46.0930 -55.4950 255° West 472 543 35,000  Level FlightAware ADS-B
Mon 12:05:01 PM 46.0670 -55.6250 254° West 472 543 35,000  Level FlightAware ADS-B
Mon 12:06:01 PM 46.0300 -55.8140 254° West 472 543 35,000  Level FlightAware ADS-B
Mon 12:06:56 PM 45.9970 -55.9800 254° West 470 541 35,000  Level FlightAware ADS-B
Mon 12:07:31 PM 45.9760 -56.0850 254° West 469 540 35,000  Level FlightAware ADS-B
Mon 12:08:11 PM 45.9520 -56.2050 254° West 467 537 35,000  Level FlightAware ADS-B
Mon 12:08:50 PM 45.9320 -56.2990 253° West 467 537 35,000  Level FlightAware ADS-B
Mon 12:09:32 PM 45.9050 -56.4310 254° West 466 536 35,000  Level FlightAware ADS-B
Mon 12:10:08 PM 45.8860 -56.5220 253° West 466 536 35,000  Level FlightAware ADS-B
Mon 12:11:57 PM 45.8200 -56.8400 254° West 467 537 35,000  Level FlightAware ADS-B
Mon 12:12:45 PM 45.7940 -56.9610 253° West 467 537 35,000  Level FlightAware ADS-B
Mon 12:13:26 PM 45.7590 -57.1380 254° West 467 537 35,000  Level FlightAware ADS-B
Mon 12:14:19 PM 45.7300 -57.2750 253° West 467 537 35,000  Level FlightAware ADS-B
Mon 12:14:55 PM 45.7100 -57.3660 253° West 467 537 35,000  Level FlightAware ADS-B
Mon 12:17:02 PM 45.6360 -57.7040 253° West 466 536 35,000  Level FlightAware ADS-B
Mon 12:17:38 PM 45.6090 -57.8350 254° West 465 535 35,000  Level FlightAware ADS-B
Mon 12:18:24 PM 45.5700 -58.0140 253° West 465 535 35,000  Level FlightAware ADS-B
Mon 12:19:06 PM 45.5430 -58.1340 252° West 464 534 35,000  Level FlightAware ADS-B
Mon 12:19:46 PM 45.5170 -58.2510 252° West 463 533 35,000  Level FlightAware ADS-B
Mon 12:20:28 PM 45.4900 -58.3730 253° West 462 532 35,000  Level FlightAware ADS-B
Mon 12:21:12 PM 45.4610 -58.5010 252° West 462 532 35,000  Level FlightAware ADS-B
Mon 12:21:52 PM 45.4360 -58.6140 253° West 462 532 35,000  Level FlightAware ADS-B
Mon 12:22:36 PM 45.4070 -58.7430 252° West 462 532 35,000  Level FlightAware ADS-B
Mon 12:23:16 PM 45.3800 -58.8590 252° West 461 531 35,000  Level FlightAware ADS-B
Mon 12:23:52 PM 45.3570 -58.9610 252° West 460 529 35,000  Level FlightAware ADS-B
Mon 12:24:28 PM 45.3330 -59.0650 252° West 460 529 35,000  Level FlightAware ADS-B
Mon 12:25:08 PM 45.3060 -59.1810 252° West 461 531 35,000  Level FlightAware ADS-B
Mon 12:25:44 PM 45.2820 -59.2840 252° West 461 531 35,000  Level FlightAware ADS-B
Mon 12:26:26 PM 45.2540 -59.4030 252° West 459 528 35,000  Level FlightAware ADS-B
Mon 12:27:10 PM 45.2250 -59.5280 252° West 459 528 35,000  Level FlightAware ADS-B
Mon 12:27:42 PM 45.2030 -59.6200 251° West 459 528 35,000  Level FlightAware ADS-B
Mon 12:28:26 PM 45.1730 -59.7450 251° West 460 529 35,000  Level FlightAware ADS-B
Mon 12:29:08 PM 45.1450 -59.8650 252° West 462 532 35,000  Level FlightAware ADS-B
Mon 12:29:42 PM 45.1220 -59.9610 251° West 461 531 35,000  Level FlightAware ADS-B
Mon 12:29:54 PM 45.1130 -59.9970 251° West 462 532 35,000  Level FlightAware ADS-B
Mon 12:32:55 PM 44.9970 -60.4730 251° West 463 533 35,000  Level FlightAware ADS-B
Mon 12:33:38 PM 44.9580 -60.6340 251° West 463 533 35,000  Level FlightAware ADS-B
Mon 12:34:20 PM 44.9280 -60.7550 251° West 463 533 35,000  Level FlightAware ADS-B
Mon 12:34:56 PM 44.9020 -60.8580 250° West 463 533 35,000  Level FlightAware ADS-B
Mon 12:35:59 PM 44.8610 -61.0210 251° West 464 534 35,000  Level FlightAware ADS-B
Mon 12:36:35 PM 44.8380 -61.1080 250° West 464 534 35,000  Level FlightAware ADS-B
Mon 12:37:59 PM 44.7860 -61.3110 250° West 464 534 35,000  Level FlightAware ADS-B
Mon 12:38:36 PM 44.7630 -61.4000 250° West 464 534 35,000  Level FlightAware ADS-B
Mon 12:39:14 PM 44.7390 -61.4920 250° West 464 534 35,000  Level FlightAware ADS-B
Mon 12:40:02 PM 44.7090 -61.6080 250° West 464 534 35,000  Level FlightAware ADS-B
Mon 12:40:48 PM 44.6800 -61.7190 250° West 464 534 35,000  Level FlightAware ADS-B
Mon 12:41:24 PM 44.6580 -61.8060 250° West 464 534 35,000  Level FlightAware ADS-B
Mon 12:42:12 PM 44.6280 -61.9210 250° West 464 534 35,000  Level FlightAware ADS-B
Mon 12:42:48 PM 44.6050 -62.0080 250° West 464 534 35,000  Level FlightAware ADS-B
Mon 12:43:26 PM 44.5820 -62.0990 250° West 464 534 35,000  Level FlightAware ADS-B
Mon 12:44:14 PM 44.5520 -62.2150 250° West 464 534 35,000  Level FlightAware ADS-B
Mon 12:45:21 PM 44.4490 -62.6070 250° West 472 543 35,000  Level FlightAware ADS-B
Mon 12:46:50 PM 44.3720 -62.8880 249° West 475 547 35,000  Level FlightAware ADS-B
Mon 12:47:35 PM 44.3370 -63.0160 249° West 475 547 35,000  Level FlightAware ADS-B
Mon 12:48:16 PM 44.3070 -63.1260 249° West 475 547 35,000  Level FlightAware ADS-B
Mon 12:48:56 PM 44.2750 -63.2440 249° West 477 549 35,000  Level FlightAware ADS-B
Mon 12:49:37 PM 44.2400 -63.3690 249° West 477 549 35,000  Level FlightAware ADS-B
Mon 12:50:20 PM 44.2060 -63.4910 249° West 478 550 35,000  Level FlightAware ADS-B
Mon 12:51:06 PM 44.1700 -63.6180 248° West 479 551 35,000  Level FlightAware ADS-B
Mon 12:51:46 PM 44.1380 -63.7320 249° West 480 552 35,000  Level FlightAware ADS-B
Mon 12:52:26 PM 44.1060 -63.8470 249° West 480 552 35,000  Level FlightAware ADS-B
Mon 12:53:07 PM 44.0700 -63.9730 248° West 482 555 35,000  Level FlightAware ADS-B
Mon 12:53:51 PM 44.0350 -64.0950 248° West 483 556 35,000  Level FlightAware ADS-B
Mon 12:54:34 PM 44.0010 -64.2140 248° West 483 556 35,000  Level FlightAware ADS-B
Mon 12:55:11 PM 43.9670 -64.3320 248° West 483 556 35,000  Level FlightAware ADS-B
Mon 12:56:12 PM 43.9220 -64.4880 248° West 485 558 35,000  Level FlightAware ADS-B
Mon 12:56:53 PM 43.8850 -64.6160 248° West 485 558 35,000  Level FlightAware ADS-B
Mon 12:57:38 PM 43.8450 -64.7510 248° West 482 555 35,000  Level FlightAware ADS-B
Mon 12:58:18 PM 43.8110 -64.8660 248° West 484 557 35,000  Level FlightAware ADS-B
Mon 12:58:59 PM 43.7770 -64.9830 248° West 484 557 35,000  Level FlightAware ADS-B
Mon 12:59:39 PM 43.7420 -65.1000 248° West 484 557 35,000  Level FlightAware ADS-B
Mon 01:00:23 PM 43.7040 -65.2270 248° West 486 559 35,000  Level FlightAware ADS-B
Mon 01:00:59 PM 43.6730 -65.3300 247° West 486 559 35,000  Level FlightAware ADS-B
Mon 01:01:44 PM 43.6340 -65.4590 247° West 487 560 35,000  Level FlightAware ADS-B
Mon 01:02:24 PM 43.5990 -65.5760 248° West 486 559 35,000  Level FlightAware ADS-B
Mon 01:03:14 PM 43.5560 -65.7190 248° West 486 559 35,000  Level FlightAware ADS-B
Mon 01:03:54 PM 43.5200 -65.8350 247° West 487 560 35,000  Level FlightAware ADS-B
Mon 01:04:35 PM 43.4850 -65.9480 247° West 486 559 35,000  Level FlightAware ADS-B
Mon 01:05:13 PM 43.4500 -66.0610 247° West 487 560 35,000  Level FlightAware ADS-B
Mon 01:05:59 PM 43.4100 -66.1910 247° West 487 560 35,000  Level FlightAware ADS-B
Mon 01:06:39 PM 43.3750 -66.3050 247° West 486 559 35,000  Level FlightAware ADS-B
Mon 01:07:20 PM 43.3430 -66.4050 246° West 486 559 35,000  Level FlightAware ADS-B
Mon 01:08:06 PM 43.3070 -66.5150 246° West 486 559 35,000  Level FlightAware ADS-B
Mon 01:08:42 PM 43.2790 -66.6020 246° West 486 559 35,000  Level FlightAware ADS-B
Mon 01:09:46 PM 43.2150 -66.8100 247° West 484 557 35,000  Level FlightAware ADS-B
Mon 01:10:23 PM 43.1860 -66.8990 246° West 484 557 35,000  Level FlightAware ADS-B
Mon 01:11:44 PM 43.1230 -67.1460 251° West 483 556 35,000  Level FlightAware ADS-B
Mon 01:12:32 PM 43.1060 -67.2460 257° West 484 557 35,000  Level FlightAware ADS-B
Mon 01:13:08 PM 43.0890 -67.3370 256° West 484 557 35,000  Level FlightAware ADS-B
Mon 01:13:55 PM 43.0490 -67.5630 256° West 483 556 35,000  Level FlightAware ADS-B
Mon 01:14:37 PM 43.0310 -67.6590 256° West 483 556 35,000  Level FlightAware ADS-B
Mon 01:15:14 PM 43.0080 -67.7830 256° West 35,000  Level FlightAware ADS-B
Mon 01:16:24 PM 42.9680 -67.9940 256° West 473 544 35,000  Level FlightAware ADS-B
Mon 01:17:19 PM 42.9370 -68.1590 256° West 472 543 35,000  Level FlightAware ADS-B
Mon 01:17:59 PM 42.9150 -68.2730 255° West 471 542 35,000  Level FlightAware ADS-B
Mon 01:18:39 PM 42.8930 -68.3870 255° West 471 542 35,000  Level FlightAware ADS-B
Mon 01:19:24 PM 42.8680 -68.5170 255° West 470 541 35,000  Level FlightAware ADS-B
Mon 01:20:04 PM 42.8480 -68.6200 255° West 468 539 35,000  Level FlightAware ADS-B
Mon 01:20:49 PM 42.8220 -68.7500 255° West 466 536 35,000  Level FlightAware ADS-B
Mon 01:21:46 PM 42.8210 -68.9150 270° West 462 532 35,000  Level FlightAware ADS-B
Mon 01:22:26 PM 42.8390 -69.0370 281° West 461 531 35,000  Level FlightAware ADS-B
Mon 01:23:06 PM 42.8570 -69.1530 282° West 460 529 35,000  Level FlightAware ADS-B
Mon 01:23:46 PM 42.8690 -69.2680 278° West 464 534 35,000  Level FlightAware ADS-B
Mon 01:24:31 PM 42.8480 -69.3950 257° West 461 531 35,000  Level FlightAware ADS-B
Mon 01:25:16 PM 42.8120 -69.5180 248° West 461 531 35,000  Level FlightAware ADS-B
Mon 01:25:56 PM 42.7810 -69.6240 248° West 473 544 35,000  Level FlightAware ADS-B
Mon 01:26:37 PM 42.7470 -69.7370 248° West 478 550 35,000  Level FlightAware ADS-B
Mon 01:27:16 PM 42.7140 -69.8470 248° West 479 551 35,000  Level FlightAware ADS-B
Mon 01:27:56 PM 42.6800 -69.9590 248° West 479 551 35,000 -150 Level FlightAware ADS-B
Mon 01:28:36 PM 42.6460 -70.0710 248° West 479 551 34,800 -1,350 Descending FlightAware ADS-B
Mon 01:29:16 PM 42.6120 -70.1840 248° West 482 555 33,200 -2,753 Descending FlightAware ADS-B
Mon 01:30:01 PM 42.5730 -70.3100 247° West 486 559 30,900 -2,753 Descending FlightAware ADS-B
Mon 01:30:41 PM 42.5380 -70.4230 247° West 481 554 29,300 -1,976 Descending FlightAware ADS-B
Mon 01:31:26 PM 42.5000 -70.5450 247° West 472 543 28,100 -918 Descending FlightAware ADS-B
Mon 01:32:06 PM 42.4550 -70.6460 239° Southwest 469 540 28,000 -225 Descending FlightAware ADS-B
Mon 01:32:46 PM 42.3900 -70.7250 222° Southwest 471 542 27,800 -867 Descending FlightAware ADS-B
Mon 01:33:36 PM 42.3100 -70.8200 221° Southwest 461 531 26,700 -1,600 Descending FlightAware ADS-B
Mon 01:34:16 PM 42.2640 -70.9110 236° Southwest 448 516 25,400 -1,950 Descending FlightAware ADS-B
Mon 01:34:56 PM 42.2730 -71.0200 276° West 430 495 24,100 -1,050 Descending FlightAware ADS-B
Mon 01:35:36 PM 42.3170 -71.1050 305° West 425 489 24,000 -75 Descending FlightAware ADS-B
Mon 01:36:16 PM 42.3210 -71.2140 273° West 437 503 24,000 -300 Level FlightAware ADS-B
Mon 01:36:56 PM 42.2990 -71.3070 252° West 431 496 23,600 -900 Descending FlightAware ADS-B
Mon 01:37:36 PM 42.2700 -71.4180 251° West 423 487 22,800 -1,333 Descending FlightAware ADS-B
Mon 01:38:17 PM 42.2440 -71.5230 252° West 425 489 21,800 -1,275 Descending FlightAware ADS-B
Mon 01:38:56 PM 42.2200 -71.6160 251° West 423 487 21,100 -1,077 Descending FlightAware ADS-B
Mon 01:39:35 PM 42.1950 -71.7170 252° West 416 479 20,400 -987 Descending FlightAware ADS-B
Mon 01:40:15 PM 42.1710 -71.8120 251° West 410 472 19,800 -955 Descending FlightAware ADS-B
Mon 01:41:03 PM 42.1400 -71.9300 251° West 401 461 19,000 -944 Descending FlightAware ADS-B
Mon 01:41:44 PM 42.1170 -72.0220 251° West 399 459 18,400 -450 Descending FlightAware ADS-B
Mon 01:42:23 PM 42.0960 -72.1000 250° West 399 459 18,400  Level FlightAware ADS-B
Mon 01:43:23 PM 42.0630 -72.2190 250° West 399 459 18,400  Level FlightAware ADS-B
Mon 01:43:59 PM 42.0440 -72.2900 250° West 399 459 18,400  Level FlightAware ADS-B
Mon 01:44:48 PM 42.0180 -72.3880 250° West 399 459 18,400  Level FlightAware ADS-B
Mon 01:45:22 PM 42.0000 -72.4550 250° West 399 459 18,400 -2,250 Level FlightAware ADS-B
Mon 01:45:52 PM 41.9856 -72.5211 250° West 385 443 16,000 -1,600 Descending Boston Center
Mon 01:46:52 PM 41.9481 -72.6689 251° West 390 449 16,000 -41 Level Boston Center
Mon 01:53:12 PM 41.7280 -73.5670 251° West 377 434 15,700 -169 Descending FlightAware ADS-B
Mon 01:53:58 PM 41.7020 -73.6700 251° West 372 428 14,800 -1,281 Descending FlightAware ADS-B
Mon 01:54:41 PM 41.6790 -73.7630 252° West 367 422 13,800 -1,308 Descending FlightAware ADS-B
Mon 01:55:16 PM 41.6600 -73.8390 252° West 363 418 13,100 -1,167 Descending FlightAware ADS-B
Mon 01:55:53 PM 41.6410 -73.9160 252° West 358 412 12,400 -1,200 Descending FlightAware ADS-B
Mon 01:56:11 PM 41.6324 -73.9554 254° West 358 412 12,000 -724 Descending FlightAware ADS-B
Mon 01:56:51 PM 41.6150 -74.0280 252° West 357 411 11,700 -863 Descending FlightAware ADS-B
Mon 01:57:29 PM 41.5937 -74.1191 253° West 10,400 -1,009 Descending FlightAware ADS-B
Mon 01:58:44 PM 41.5350 -74.2450 238° Southwest 301 346 9,800 -496 Descending FlightAware ADS-B
Mon 01:59:30 PM 41.4950 -74.3000 226° Southwest 293 337 9,400 -414 Descending FlightAware ADS-B
Mon 01:59:42 PM 41.4850 -74.3130 224° Southwest 293 337 9,400  Level FlightAware ADS-B
Mon 02:00:06 PM 41.4650 -74.3390 224° Southwest 293 337 9,400  Level FlightAware ADS-B
Mon 02:00:40 PM 41.4380 -74.3760 226° Southwest 293 337 9,400 -593 Level FlightAware ADS-B
Mon 02:04:29 PM 41.1330 -74.5320 201° Southwest 295 339 6,800 -612 Descending FlightAware ADS-B
Mon 02:04:55 PM 41.1050 -74.5430 196° South 295 339 6,800  Level FlightAware ADS-B
Mon 02:05:16 PM 41.0715 -74.5553 195° South 299 344 6,800 -538 Level FlightAware ADS-B
Mon 02:06:13 PM 40.9931 -74.5472 176° South 294 338 6,100 -594 Descending FlightAware ADS-B
Mon 02:06:57 PM 40.9370 -74.5500 182° South 287 330 5,800 -310 Descending FlightAware ADS-B
Mon 02:07:11 PM 40.9158 -74.5524 185° South 288 331 5,800  Level FlightAware ADS-B
Mon 02:07:18 PM 40.9069 -74.5532 184° South 286 329 5,800  Level FlightAware ADS-B
Mon 02:07:35 PM 40.8844 -74.5557 185° South 285 328 5,800 -176 Level FlightAware ADS-B
Mon 02:07:52 PM 40.8628 -74.5579 184° South 282 325 5,700 -686 Descending FlightAware ADS-B
Mon 02:08:10 PM 40.8384 -74.5605 185° South 282 325 5,400 -1,111 Descending FlightAware ADS-B
Mon 02:08:19 PM 40.8269 -74.5616 184° South 282 325 5,200 -1,125 Descending FlightAware ADS-B
Mon 02:08:42 PM 40.7972 -74.5648 185° South 279 321 4,800 -429 Descending FlightAware ADS-B
Mon 02:09:15 PM 40.7550 -74.5700 185° South 285 328 4,800  Level FlightAware ADS-B
Mon 02:09:28 PM 40.7373 -74.5719 185° South 284 327 4,800  Level FlightAware ADS-B
Mon 02:10:21 PM 40.6720 -74.5750 182° South 258 297 4,800  Level FlightAware ADS-B
Mon 02:10:40 PM 40.6520 -74.5730 176° South 244 281 4,800  Level FlightAware ADS-B
Mon 02:11:27 PM 40.5963 -74.5676 176° South 244 281 4,800  Level FlightAware ADS-B
Mon 02:11:44 PM 40.5773 -74.5661 177° South 236 272 4,800  Level FlightAware ADS-B
Mon 02:11:55 PM 40.5655 -74.5651 176° South 238 274 4,800  Level FlightAware ADS-B
Mon 02:12:10 PM 40.5486 -74.5637 176° South 244 281 4,800 -200 Level FlightAware ADS-B
Mon 02:12:25 PM 40.5308 -74.5622 176° South 242 278 4,700 -581 Descending FlightAware ADS-B
Mon 02:12:41 PM 40.5134 -74.5607 176° South 237 273 4,500 -882 Descending FlightAware ADS-B
Mon 02:12:59 PM 40.4939 -74.5589 176° South 235 270 4,200 -1,059 Descending FlightAware ADS-B
Mon 02:13:15 PM 40.4771 -74.5573 176° South 234 269 3,900 -706 Descending FlightAware ADS-B
Mon 02:13:33 PM 40.4566 -74.5558 177° South 240 276 3,800 -214 Descending FlightAware ADS-B
Mon 02:13:43 PM 40.4462 -74.5546 175° South 241 277 3,800 -400 Level FlightAware ADS-B
Mon 02:13:48 PM 40.4412 -74.5534 170° South 239 275 3,700 -750 Descending FlightAware ADS-B
Mon 02:13:51 PM 40.4370 -74.5518 164° South 240 276 3,700 -750 Level FlightAware ADS-B
Mon 02:13:56 PM 40.4324 -74.5486 152° Southeast 238 274 3,600 -923 Descending FlightAware ADS-B
Mon 02:14:04 PM 40.4257 -74.5414 141° Southeast 236 272 3,500 -800 Descending FlightAware ADS-B
Mon 02:14:11 PM 40.4204 -74.5335 131° Southeast 233 268 3,400 -1,304 Descending FlightAware ADS-B
Mon 02:14:27 PM 40.4103 -74.5165 128° Southeast 234 269 3,000 -1,500 Descending FlightAware ADS-B
Mon 02:14:31 PM 40.4073 -74.5115 128° Southeast 233 268 2,900 -857 Descending FlightAware ADS-B
Mon 02:14:41 PM 40.4005 -74.5002 128° Southeast 235 270 2,800 -231 Descending FlightAware ADS-B
Mon 02:14:57 PM 40.3904 -74.4830 128° Southeast 234 269 2,800  Level FlightAware ADS-B
Mon 02:15:01 PM 40.3873 -74.4779 129° Southeast 236 272 2,800  Level FlightAware ADS-B
Mon 02:15:23 PM 40.3741 -74.4525 124° Southeast 236 272 2,800  Level FlightAware ADS-B
Mon 02:15:49 PM 40.3772 -74.4170 83° East 229 264 2,800  Level FlightAware ADS-B
Mon 02:15:53 PM 40.3796 -74.4127 54° Northeast 229 264 2,800  Level FlightAware ADS-B
Mon 02:16:40 PM 40.4118 -74.3622 50° Northeast 236 272 2,800  Level FlightAware ADS-B
Mon 02:17:17 PM 40.4300 -74.3410 42° Northeast 224 258 2,800  Level FlightAware ADS-B
Mon 02:17:37 PM 40.4600 -74.3180 30° Northeast 222 255 2,800  Level FlightAware ADS-B
Mon 02:17:54 PM 40.4754 -74.3083 26° Northeast 210 242 2,800  Level FlightAware ADS-B
Mon 02:18:21 PM 40.4978 -74.2944 25° Northeast 196 226 2,800  Level FlightAware ADS-B
Mon 02:18:38 PM 40.5123 -74.2856 25° Northeast 192 221 2,800  Level FlightAware ADS-B
Mon 02:18:54 PM 40.5248 -74.2778 25° Northeast 191 220 2,800  Level FlightAware ADS-B
Mon 02:19:07 PM 40.5351 -74.2709 27° Northeast 192 221 2,800 -286 Level FlightAware ADS-B
Mon 02:19:15 PM 40.5416 -74.2667 26° Northeast 194 223 2,700 -857 Descending FlightAware ADS-B
Mon 02:19:28 PM 40.5523 -74.2597 26° Northeast 194 223 2,500 -1,116 Descending FlightAware ADS-B
Mon 02:19:58 PM 40.5761 -74.2441 26° Northeast 196 226 1,900 -1,116 Descending FlightAware ADS-B
Mon 02:20:11 PM 40.5869 -74.2372 26° Northeast 192 221 1,700 -1,000 Descending FlightAware ADS-B
Mon 02:20:34 PM 40.6046 -74.2259 26° Northeast 177 204 1,300 -1,000 Descending FlightAware ADS-B
Mon 02:20:53 PM 40.6181 -74.2175 25° Northeast 167 192 1,000 -882 Descending FlightAware ADS-B
Mon 02:21:08 PM 40.6284 -74.2108 26° Northeast 157 181 800 -750 Descending FlightAware ADS-B
Mon 02:21:17 PM 40.6341 -74.2072 26° Northeast 151 174 700 -800 Descending FlightAware ADS-B
Mon 02:21:38 PM 40.6469 -74.1989 26° Northeast 140 161 400 -769 Descending FlightAware ADS-B
Mon 02:21:56 PM 40.6575 -74.1923 25° Northeast 140 161 200 -529 Descending FlightAware ADS-B
Mon 02:22:12 PM 40.6661 -74.1866 27° Northeast 137 158 100 -375 Descending FlightAware ADS-B

Login

Don't have an account? Register now (free) for customized features, flight alerts, and more!